createdAt,value
2019-05-19T00:00:17.731Z,101.45
2019-05-19T00:02:48.145Z,101.22
2019-05-19T00:05:18.703Z,104.78
2019-05-19T00:07:49.283Z,107.72
2019-05-19T00:10:19.639Z,97.25
2019-05-19T00:12:50.049Z,100.53
2019-05-19T00:15:20.426Z,96.57
2019-05-19T00:17:50.816Z,102.38
2019-05-19T00:20:21.193Z,104.05
2019-05-19T00:22:51.796Z,108.60
2019-05-19T00:25:22.225Z,106.03
2019-05-19T00:27:52.546Z,108.57
2019-05-19T00:30:22.928Z,112.22
2019-05-19T00:32:53.367Z,105.32
2019-05-19T00:35:23.806Z,103.42
2019-05-19T00:37:54.467Z,104.95
2019-05-19T00:40:25.265Z,107.75
2019-05-19T00:42:55.786Z,109.48
2019-05-19T00:45:26.190Z,108.20
2019-05-19T00:47:56.782Z,112.28
2019-05-19T00:50:27.336Z,102.32
2019-05-19T00:52:57.963Z,108.42
2019-05-19T00:55:28.543Z,109.00
2019-05-19T00:57:59.764Z,110.88
2019-05-19T01:00:30.364Z,111.22
2019-05-19T01:03:00.875Z,113.45
2019-05-19T01:05:31.236Z,107.12
2019-05-19T01:08:01.811Z,105.60
2019-05-19T01:10:32.444Z,106.35
2019-05-19T01:13:02.837Z,115.00
2019-05-19T01:15:33.361Z,116.22
2019-05-19T01:18:03.807Z,106.97
2019-05-19T01:20:35.025Z,108.07
2019-05-19T01:23:05.524Z,114.45
2019-05-19T01:25:35.990Z,113.08
2019-05-19T01:28:06.350Z,117.75
2019-05-19T01:30:36.776Z,120.75
2019-05-19T01:33:07.103Z,113.22
2019-05-19T01:35:37.586Z,117.10
2019-05-19T01:38:08.016Z,116.97
2019-05-19T01:40:38.345Z,117.87
2019-05-19T01:43:08.698Z,127.65
2019-05-19T01:45:39.081Z,119.30
2019-05-19T01:48:09.406Z,118.45
2019-05-19T01:50:39.767Z,119.80
2019-05-19T01:53:10.189Z,126.67
2019-05-19T01:55:40.596Z,124.15
2019-05-19T01:58:11.043Z,128.12
2019-05-19T02:00:41.455Z,119.77
2019-05-19T02:03:11.793Z,129.07
2019-05-19T02:05:42.330Z,133.72
2019-05-19T02:08:13.249Z,126.47
2019-05-19T02:10:43.656Z,124.70
2019-05-19T02:13:14.096Z,134.97
2019-05-19T02:15:44.516Z,130.65
2019-05-19T02:18:15.045Z,131.67
2019-05-19T02:20:45.707Z,130.47
2019-05-19T02:23:16.118Z,136.18
2019-05-19T02:25:46.495Z,143.13
2019-05-19T02:28:16.855Z,140.35
2019-05-19T02:30:47.322Z,145.17
2019-05-19T02:33:17.757Z,147.65
2019-05-19T02:35:48.167Z,137.88
2019-05-19T02:38:18.615Z,150.15
2019-05-19T02:40:55.572Z,149.82
2019-05-19T02:43:26.422Z,139.03
2019-05-19T02:46:02.061Z,144.87
2019-05-19T02:48:34.918Z,147.55
2019-05-19T02:51:07.991Z,138.12
2019-05-19T02:53:39.682Z,141.88
2019-05-19T02:56:10.203Z,147.85
2019-05-19T02:58:41.271Z,146.77
2019-05-19T03:01:11.801Z,147.40
2019-05-19T03:03:42.196Z,148.90
2019-05-19T03:06:12.641Z,139.95
2019-05-19T03:08:43.696Z,150.90
2019-05-19T03:11:14.081Z,140.03
2019-05-19T03:13:44.513Z,146.82
2019-05-19T03:16:14.892Z,147.22
2019-05-19T03:18:45.263Z,149.18
2019-05-19T03:21:15.666Z,148.75
2019-05-19T03:23:45.993Z,143.45
2019-05-19T03:26:16.320Z,151.35
2019-05-19T03:28:46.892Z,146.93
2019-05-19T03:31:30.841Z,145.75
2019-05-19T03:34:01.222Z,147.30
2019-05-19T03:36:31.723Z,146.62
2019-05-19T03:39:02.187Z,155.25
2019-05-19T03:41:32.601Z,152.22
2019-05-19T03:44:03.494Z,149.40
2019-05-19T03:46:33.818Z,156.28
2019-05-19T03:49:04.269Z,159.32
2019-05-19T03:51:34.627Z,162.85
2019-05-19T03:54:05.090Z,156.28
2019-05-19T03:56:36.154Z,159.85
2019-05-19T03:59:06.530Z,155.55
2019-05-19T04:01:36.928Z,153.82
2019-05-19T04:04:07.361Z,149.05
2019-05-19T04:06:38.006Z,144.80
2019-05-19T04:09:08.747Z,149.32
2019-05-19T04:11:39.253Z,149.85
2019-05-19T04:14:09.678Z,154.60
2019-05-19T04:16:40.028Z,150.68
2019-05-19T04:19:10.393Z,148.55
2019-05-19T04:21:48.732Z,148.10
2019-05-19T04:24:12.846Z,159.75
2019-05-19T04:26:43.201Z,157.82
2019-05-19T04:29:13.599Z,157.52
2019-05-19T04:31:43.928Z,163.47
2019-05-19T04:34:14.402Z,161.30
2019-05-19T04:36:44.760Z,162.97
2019-05-19T04:39:15.096Z,158.00
2019-05-19T04:41:45.857Z,169.65
2019-05-19T04:44:16.177Z,170.38
2019-05-19T04:46:46.526Z,161.25
2019-05-19T04:49:16.918Z,168.07
2019-05-19T04:51:56.854Z,158.70
2019-05-19T04:54:19.692Z,161.92
2019-05-19T04:56:50.295Z,162.60
2019-05-19T04:59:20.711Z,159.27
2019-05-19T05:01:51.075Z,156.60
2019-05-19T05:04:21.457Z,161.60
2019-05-19T05:06:51.951Z,168.95
2019-05-19T05:09:22.431Z,164.10
2019-05-19T05:11:52.886Z,167.43
2019-05-19T05:14:23.437Z,166.77
2019-05-19T05:16:53.785Z,163.32
2019-05-19T05:19:24.187Z,170.43
2019-05-19T05:21:54.594Z,163.60
2019-05-19T05:24:28.477Z,162.50
2019-05-19T05:26:57.187Z,162.35
2019-05-19T05:29:27.505Z,168.00
2019-05-19T05:31:57.882Z,155.35
2019-05-19T05:34:28.291Z,156.10
2019-05-19T05:36:58.914Z,152.65
2019-05-19T05:39:29.350Z,158.00
2019-05-19T05:41:59.827Z,158.15
2019-05-19T05:44:30.176Z,148.13
2019-05-19T05:47:00.555Z,158.95
2019-05-19T05:49:30.901Z,154.65
2019-05-19T05:52:01.249Z,146.62
2019-05-19T05:54:31.648Z,155.18
2019-05-19T05:57:02.014Z,161.70
2019-05-19T05:59:32.395Z,147.55
2019-05-19T06:02:02.775Z,148.05
2019-05-19T06:04:33.191Z,152.32
2019-05-19T06:07:03.537Z,140.90
2019-05-19T06:09:33.992Z,153.18
2019-05-19T06:12:04.630Z,157.15
2019-05-19T06:14:34.980Z,142.15
2019-05-19T06:17:05.357Z,149.60
2019-05-19T06:19:35.747Z,151.50
2019-05-19T06:22:06.187Z,153.20
2019-05-19T06:24:36.518Z,143.55
2019-05-19T06:27:06.948Z,154.40
2019-05-19T06:29:37.406Z,150.47
2019-05-19T06:32:18.203Z,148.35
2019-05-19T06:34:48.648Z,156.18
2019-05-19T06:37:19.122Z,146.55
2019-05-19T06:39:49.537Z,149.23
2019-05-19T06:42:19.878Z,147.85
2019-05-19T06:44:50.210Z,138.00
2019-05-19T06:47:20.731Z,137.47
2019-05-19T06:49:51.195Z,132.85
2019-05-19T06:52:21.648Z,130.05
2019-05-19T06:54:52.158Z,129.63
2019-05-19T06:57:22.492Z,127.90
2019-05-19T06:59:52.896Z,125.20
2019-05-19T07:02:23.496Z,125.97
2019-05-19T07:04:53.832Z,124.55
2019-05-19T07:07:24.301Z,129.35
2019-05-19T07:09:58.515Z,125.07
2019-05-19T07:12:26.892Z,127.87
2019-05-19T07:14:57.305Z,126.58
2019-05-19T07:17:27.754Z,132.12
2019-05-19T07:19:58.146Z,129.47
2019-05-19T07:22:28.499Z,116.62
2019-05-19T07:24:59.923Z,123.05
2019-05-19T07:27:30.445Z,125.40
2019-05-19T07:30:01.005Z,120.57
2019-05-19T07:32:31.744Z,122.35
2019-05-19T07:35:02.291Z,121.30
2019-05-19T07:37:33.306Z,129.82
2019-05-19T07:40:05.032Z,126.70
2019-05-19T07:42:35.736Z,127.25
2019-05-19T07:45:07.660Z,132.60
2019-05-19T07:47:38.027Z,127.15
2019-05-19T07:50:08.409Z,138.00
2019-05-19T07:52:38.912Z,138.22
2019-05-19T07:55:09.551Z,136.47
2019-05-19T07:57:40.294Z,143.62
2019-05-19T08:00:11.960Z,144.47
2019-05-19T08:02:42.324Z,146.65
2019-05-19T08:05:12.697Z,138.90
2019-05-19T08:07:43.026Z,160.28
2019-05-19T08:10:13.523Z,142.15
2019-05-19T08:12:44.008Z,138.20
2019-05-19T08:15:14.437Z,132.95
2019-05-19T08:17:44.763Z,136.65
2019-05-19T08:20:16.027Z,144.95
2019-05-19T08:22:46.361Z,141.10
2019-05-19T08:25:16.700Z,135.75
2019-05-19T08:27:47.148Z,142.00
2019-05-19T08:30:17.726Z,157.72
2019-05-19T08:32:48.216Z,154.07
2019-05-19T08:35:18.545Z,142.10
2019-05-19T08:37:49.007Z,130.20
2019-05-19T08:40:19.514Z,137.30
2019-05-19T08:42:49.828Z,153.85
2019-05-19T08:45:20.144Z,158.15
2019-05-19T08:47:50.491Z,141.70
2019-05-19T08:50:20.816Z,141.62
2019-05-19T08:52:51.187Z,135.78
2019-05-19T08:55:21.534Z,146.00
2019-05-19T08:57:51.881Z,128.60
2019-05-19T09:00:22.215Z,148.62
2019-05-19T09:02:52.664Z,134.40
2019-05-19T09:05:23.025Z,109.07
2019-05-19T09:07:53.655Z,106.32
2019-05-19T09:10:24.026Z,108.83
2019-05-19T09:12:54.537Z,110.95
2019-05-19T09:15:24.857Z,106.17
2019-05-19T09:17:55.274Z,104.15
2019-05-19T09:20:25.644Z,101.60
2019-05-19T09:22:55.996Z,101.82
2019-05-19T09:25:26.436Z,101.62
2019-05-19T09:27:56.787Z,105.07
2019-05-19T09:30:27.142Z,100.35
2019-05-19T09:32:57.501Z,104.40
2019-05-19T09:35:27.853Z,105.58
2019-05-19T09:37:58.668Z,110.48
2019-05-19T09:40:29.029Z,106.80
2019-05-19T09:42:59.423Z,108.67
2019-05-19T09:45:29.730Z,107.52
2019-05-19T09:48:00.112Z,107.45
2019-05-19T09:50:30.433Z,107.92
2019-05-19T09:53:00.773Z,104.90
2019-05-19T09:55:31.140Z,100.72
2019-05-19T09:58:01.515Z,106.72
2019-05-19T10:00:31.980Z,104.95
2019-05-19T10:03:03.184Z,103.40
2019-05-19T10:05:33.607Z,98.78
2019-05-19T10:08:04.077Z,91.82
2019-05-19T10:11:22.312Z,91.95
2019-05-19T10:13:52.670Z,90.12
2019-05-19T10:16:23.033Z,89.77
2019-05-19T10:18:53.370Z,75.30
2019-05-19T10:21:23.724Z,75.47
2019-05-19T10:23:54.044Z,88.25
2019-05-19T10:26:24.615Z,77.20
2019-05-19T10:28:55.002Z,76.87
2019-05-19T10:31:25.326Z,73.40
2019-05-19T10:33:55.677Z,72.25
2019-05-19T10:36:26.304Z,70.37
2019-05-19T10:38:56.740Z,75.87
2019-05-19T10:41:27.134Z,66.60
2019-05-19T10:44:00.925Z,67.05
2019-05-19T10:46:31.931Z,72.82
2019-05-19T10:49:02.286Z,66.92
2019-05-19T10:51:32.659Z,67.67
2019-05-19T10:54:03.087Z,72.00
2019-05-19T10:56:33.419Z,65.57
2019-05-19T10:59:03.783Z,69.03
2019-05-19T11:01:34.201Z,69.10
2019-05-19T11:04:04.585Z,68.22
2019-05-19T11:06:35.084Z,71.15
2019-05-19T11:09:06.378Z,66.33
2019-05-19T11:11:36.741Z,64.82
2019-05-19T11:14:07.099Z,64.17
2019-05-19T11:16:37.506Z,67.75
2019-05-19T11:19:07.952Z,67.12
2019-05-19T11:21:38.320Z,67.55
2019-05-19T11:24:08.745Z,65.45
2019-05-19T11:26:39.102Z,61.80
2019-05-19T11:29:09.608Z,61.85
2019-05-19T11:31:40.021Z,66.72
2019-05-19T11:34:10.538Z,58.60
2019-05-19T11:36:41.167Z,61.50
2019-05-19T11:39:11.707Z,64.87
2019-05-19T11:41:42.029Z,57.78
2019-05-19T11:44:12.545Z,59.65
2019-05-19T11:46:43.144Z,61.13
2019-05-19T11:49:13.463Z,54.50
2019-05-19T11:51:43.800Z,55.92
2019-05-19T11:54:14.150Z,54.73
2019-05-19T11:56:44.484Z,55.98
2019-05-19T11:59:14.821Z,57.67
2019-05-19T12:01:45.200Z,55.55
2019-05-19T12:04:15.542Z,58.60
2019-05-19T12:06:46.169Z,56.83
2019-05-19T12:09:16.529Z,56.42
2019-05-19T12:11:46.885Z,56.13
2019-05-19T12:14:17.261Z,53.15
2019-05-19T12:16:47.768Z,55.88
2019-05-19T12:19:18.308Z,60.60
2019-05-19T12:21:48.774Z,52.78
2019-05-19T12:24:19.132Z,59.25
2019-05-19T12:26:49.448Z,51.60
2019-05-19T12:29:19.812Z,53.00
2019-05-19T12:31:50.263Z,50.92
2019-05-19T12:34:20.605Z,52.88
2019-05-19T12:36:51.283Z,51.98
2019-05-19T12:39:21.622Z,53.08
2019-05-19T12:41:51.949Z,56.63
2019-05-19T12:44:22.348Z,54.13
2019-05-19T12:46:52.700Z,53.02
2019-05-19T12:49:23.279Z,51.15
2019-05-19T12:51:53.707Z,52.78
2019-05-19T12:54:24.053Z,52.53
2019-05-19T12:56:54.414Z,52.08
2019-05-19T12:59:24.780Z,52.27
2019-05-19T13:01:55.149Z,46.83
2019-05-19T13:04:25.505Z,45.20
2019-05-19T13:06:56.045Z,52.23
2019-05-19T13:09:26.492Z,47.80
2019-05-19T13:11:56.816Z,50.05
2019-05-19T13:14:27.146Z,50.50
2019-05-19T13:16:57.502Z,50.92
2019-05-19T13:19:27.882Z,49.67
2019-05-19T13:21:58.315Z,47.58
2019-05-19T13:24:28.760Z,48.65
2019-05-19T13:26:59.141Z,47.33
2019-05-19T13:29:30.311Z,53.25
2019-05-19T13:32:00.659Z,49.95
2019-05-19T13:34:31.077Z,50.48
2019-05-19T13:37:01.587Z,51.85
2019-05-19T13:39:31.985Z,52.73
2019-05-19T13:42:02.374Z,53.70
2019-05-19T13:44:32.731Z,55.17
2019-05-19T13:47:03.068Z,50.85
2019-05-19T13:49:33.381Z,53.85
2019-05-19T13:52:03.747Z,60.20
2019-05-19T13:54:34.088Z,57.38
2019-05-19T13:57:12.388Z,56.98
2019-05-19T13:59:36.536Z,64.05
2019-05-19T14:02:06.868Z,63.68
2019-05-19T14:04:37.316Z,60.12
2019-05-19T14:07:07.914Z,57.98
2019-05-19T14:09:38.266Z,55.03
2019-05-19T14:12:08.669Z,56.42
2019-05-19T14:14:38.979Z,58.02
2019-05-19T14:17:09.310Z,64.03
2019-05-19T14:19:40.387Z,60.03
2019-05-19T14:22:10.746Z,58.52
2019-05-19T14:24:41.145Z,59.13
2019-05-19T14:27:14.212Z,58.92
2019-05-19T14:29:43.515Z,56.65
2019-05-19T14:32:13.926Z,55.33
2019-05-19T14:34:44.268Z,59.93
2019-05-19T14:37:15.043Z,55.08
2019-05-19T14:39:45.503Z,58.40
2019-05-19T14:42:24.148Z,57.17
2019-05-19T14:44:54.474Z,61.60
2019-05-19T14:47:24.928Z,66.20
2019-05-19T14:49:55.283Z,58.78
2019-05-19T14:52:25.648Z,62.10
2019-05-19T14:54:55.964Z,62.60
2019-05-19T14:57:26.300Z,68.07
2019-05-19T14:59:56.644Z,61.60
2019-05-19T15:02:26.974Z,67.10
2019-05-19T15:04:57.341Z,65.08
2019-05-19T15:07:27.987Z,71.87
2019-05-19T15:09:58.320Z,73.50
2019-05-19T15:12:28.656Z,68.45
2019-05-19T15:14:59.004Z,71.02
2019-05-19T15:17:29.314Z,66.95
2019-05-19T15:19:59.643Z,73.70
2019-05-19T15:22:29.992Z,70.83
2019-05-19T15:25:00.327Z,66.92
2019-05-19T15:27:30.652Z,64.05
2019-05-19T15:30:12.235Z,68.78
2019-05-19T15:32:33.127Z,65.28
2019-05-19T15:35:03.450Z,69.75
2019-05-19T15:37:33.912Z,69.45
2019-05-19T15:40:04.727Z,74.50
2019-05-19T15:42:35.061Z,74.65
2019-05-19T15:45:06.366Z,70.83
2019-05-19T15:47:36.689Z,69.87
2019-05-19T15:50:07.867Z,73.22
2019-05-19T15:52:38.241Z,69.15
2019-05-19T15:55:08.670Z,74.75
2019-05-19T15:57:39.200Z,76.07
2019-05-19T16:00:10.737Z,80.42
2019-05-19T16:02:41.225Z,77.82
2019-05-19T16:05:11.540Z,72.75
2019-05-19T16:07:42.322Z,74.80
2019-05-19T16:10:13.139Z,79.25
2019-05-19T16:12:43.548Z,67.08
2019-05-19T16:15:14.349Z,68.70
2019-05-19T16:17:44.681Z,77.75
2019-05-19T16:20:15.455Z,65.17
2019-05-19T16:22:45.811Z,68.72
2019-05-19T16:25:16.170Z,69.75
2019-05-19T16:27:46.581Z,70.70
2019-05-19T16:30:17.193Z,66.62
2019-05-19T16:32:47.549Z,67.53
2019-05-19T16:35:18.032Z,64.27
2019-05-19T16:37:48.668Z,69.10
2019-05-19T16:40:19.083Z,67.50
2019-05-19T16:42:49.422Z,67.72
2019-05-19T16:45:19.833Z,70.78
2019-05-19T16:47:50.291Z,62.40
2019-05-19T16:50:20.672Z,64.17
2019-05-19T16:52:51.022Z,64.58
2019-05-19T16:55:29.067Z,66.28
2019-05-19T16:57:59.493Z,67.08
2019-05-19T17:00:30.426Z,60.12
2019-05-19T17:03:00.746Z,65.35
2019-05-19T17:05:31.117Z,62.73
2019-05-19T17:08:01.618Z,65.75
2019-05-19T17:10:31.961Z,66.92
2019-05-19T17:13:02.354Z,62.88
2019-05-19T17:15:32.748Z,62.48
2019-05-19T17:18:03.045Z,65.15
2019-05-19T17:20:33.410Z,65.00
2019-05-19T17:23:03.790Z,58.23
2019-05-19T17:25:34.137Z,77.37
2019-05-19T17:28:04.556Z,71.77
2019-05-19T17:30:34.873Z,65.92
2019-05-19T17:33:05.203Z,65.95
2019-05-19T17:35:35.721Z,62.03
2019-05-19T17:38:06.393Z,68.55
2019-05-19T17:40:36.696Z,73.35
2019-05-19T17:43:07.030Z,79.72
2019-05-19T17:45:37.379Z,75.17
2019-05-19T17:48:09.898Z,76.35
2019-05-19T17:50:39.795Z,79.45
2019-05-19T17:53:10.138Z,71.28
2019-05-19T17:55:41.201Z,70.47
2019-05-19T17:58:11.519Z,77.37
2019-05-19T18:00:43.560Z,83.00
2019-05-19T18:03:14.760Z,86.47
2019-05-19T18:05:45.110Z,78.72
2019-05-19T18:08:15.614Z,84.28
2019-05-19T18:10:46.003Z,80.17
2019-05-19T18:13:16.348Z,81.55
2019-05-19T18:15:46.697Z,91.02
2019-05-19T18:18:17.067Z,74.47
2019-05-19T18:20:47.436Z,91.47
2019-05-19T18:23:17.799Z,80.97
2019-05-19T18:25:48.102Z,86.50
2019-05-19T18:28:18.429Z,94.58
2019-05-19T18:30:48.799Z,102.75
2019-05-19T18:33:19.612Z,106.30
2019-05-19T18:35:50.047Z,109.32
2019-05-19T18:38:20.649Z,105.87
2019-05-19T18:40:50.999Z,100.82
2019-05-19T18:43:21.470Z,112.30
2019-05-19T18:45:51.769Z,111.35
2019-05-19T18:48:23.373Z,108.37
2019-05-19T18:50:53.872Z,110.85
2019-05-19T18:53:24.316Z,114.82
2019-05-19T18:55:54.693Z,113.25
2019-05-19T18:58:25.179Z,109.40
2019-05-19T19:00:55.548Z,122.45
2019-05-19T19:03:25.875Z,125.33
2019-05-19T19:05:56.387Z,121.67
2019-05-19T19:08:27.005Z,123.78
2019-05-19T19:10:57.303Z,119.08
2019-05-19T19:13:27.954Z,123.50
2019-05-19T19:15:58.269Z,123.67
2019-05-19T19:18:28.633Z,123.20
2019-05-19T19:20:59.066Z,116.53
2019-05-19T19:23:29.493Z,116.90
2019-05-19T19:25:59.967Z,122.02
2019-05-19T19:28:30.322Z,118.05
2019-05-19T19:31:00.760Z,123.35
2019-05-19T19:33:31.149Z,123.92
2019-05-19T19:36:01.519Z,119.62
2019-05-19T19:38:32.518Z,187.85
2019-05-19T19:41:02.909Z,169.32
2019-05-19T19:43:33.290Z,141.92
2019-05-19T19:46:03.647Z,144.45
2019-05-19T19:48:34.066Z,165.73
2019-05-19T19:51:04.484Z,155.60
2019-05-19T19:53:34.984Z,129.38
2019-05-19T19:56:05.405Z,130.22
2019-05-19T19:58:35.776Z,124.00
2019-05-19T20:01:06.202Z,128.47
2019-05-19T20:03:40.049Z,138.43
2019-05-19T20:06:08.697Z,130.70
2019-05-19T20:08:39.100Z,139.10
2019-05-19T20:11:09.468Z,132.43
2019-05-19T20:13:39.913Z,136.30
2019-05-19T20:16:10.257Z,133.52
2019-05-19T20:18:40.636Z,139.90
2019-05-19T20:21:11.196Z,149.20
2019-05-19T20:23:41.516Z,150.05
2019-05-19T20:26:11.948Z,137.25
2019-05-19T20:28:42.310Z,150.40
2019-05-19T20:31:12.669Z,156.55
2019-05-19T20:33:43.033Z,150.47
2019-05-19T20:36:14.146Z,147.05
2019-05-19T20:38:44.540Z,145.90
2019-05-19T20:41:14.890Z,153.97
2019-05-19T20:43:45.271Z,155.48
2019-05-19T20:46:15.656Z,155.00
2019-05-19T20:48:46.037Z,165.12
2019-05-19T20:51:16.650Z,176.27
2019-05-19T20:53:46.965Z,174.97
2019-05-19T20:56:17.298Z,185.07
2019-05-19T20:58:47.712Z,179.07
2019-05-19T21:01:18.033Z,174.38
2019-05-19T21:03:48.367Z,170.47
2019-05-19T21:06:18.779Z,168.87
2019-05-19T21:08:49.139Z,170.47
2019-05-19T21:11:19.485Z,168.72
2019-05-19T21:13:49.838Z,169.55
2019-05-19T21:16:20.190Z,173.97
2019-05-19T21:18:50.573Z,164.13
2019-05-19T21:21:21.079Z,176.93
2019-05-19T21:23:51.440Z,177.05
2019-05-19T21:26:21.881Z,158.63
2019-05-19T21:28:52.335Z,170.92
2019-05-19T21:31:22.691Z,165.32
2019-05-19T21:33:53.152Z,182.27
2019-05-19T21:36:23.531Z,167.47
2019-05-19T21:38:53.900Z,184.67
2019-05-19T21:41:24.303Z,192.47
2019-05-19T21:43:54.847Z,199.45
2019-05-19T21:46:25.394Z,195.95
2019-05-19T21:48:55.751Z,175.25
2019-05-19T21:51:26.112Z,160.82
2019-05-19T21:53:56.459Z,169.93
2019-05-19T21:56:26.746Z,159.52
2019-05-19T21:58:57.177Z,149.87
2019-05-19T22:01:27.703Z,142.15
2019-05-19T22:03:58.035Z,143.82
2019-05-19T22:06:30.277Z,142.47
2019-05-19T22:09:00.732Z,150.32
2019-05-19T22:11:31.101Z,159.45
2019-05-19T22:14:01.476Z,175.68
2019-05-19T22:16:31.870Z,168.10
2019-05-19T22:19:02.231Z,222.30
2019-05-19T22:21:32.618Z,197.85
2019-05-19T22:24:02.953Z,225.95
2019-05-19T22:26:33.299Z,210.80
2019-05-19T22:29:03.676Z,221.15
2019-05-19T22:31:36.907Z,193.65
2019-05-19T22:34:06.055Z,190.18
2019-05-19T22:36:36.450Z,158.47
2019-05-19T22:39:07.861Z,154.45
2019-05-19T22:41:38.185Z,149.25
2019-05-19T22:44:08.708Z,144.70
2019-05-19T22:46:39.076Z,145.02
2019-05-19T22:49:09.394Z,151.20
2019-05-19T22:51:39.785Z,155.50
2019-05-19T22:54:10.158Z,144.43
2019-05-19T22:56:40.507Z,142.87
2019-05-19T22:59:19.257Z,153.45
2019-05-19T23:01:51.362Z,146.82
2019-05-19T23:04:15.045Z,156.05
2019-05-19T23:06:45.745Z,130.50
2019-05-19T23:09:16.072Z,131.18
2019-05-19T23:11:46.487Z,128.27
2019-05-19T23:14:16.829Z,147.37
2019-05-19T23:16:47.194Z,143.52
2019-05-19T23:19:17.695Z,144.50
2019-05-19T23:21:48.233Z,142.10
2019-05-19T23:24:18.585Z,125.25
2019-05-19T23:26:48.955Z,117.10
2019-05-19T23:29:19.322Z,129.63
2019-05-19T23:31:49.731Z,130.43
2019-05-19T23:34:20.243Z,129.45
2019-05-19T23:36:50.603Z,140.82
2019-05-19T23:39:20.952Z,157.78
2019-05-19T23:41:51.340Z,136.25
2019-05-19T23:44:21.708Z,130.52
2019-05-19T23:46:52.088Z,132.80
2019-05-19T23:49:22.473Z,151.90
2019-05-19T23:51:52.849Z,142.60
2019-05-19T23:54:23.277Z,106.78
2019-05-19T23:56:53.611Z,114.30
2019-05-19T23:59:23.994Z,124.42
